createdAt,value
2022-11-15T00:04:19.764Z,100157.34
2022-11-15T00:09:43.391Z,100161.47
2022-11-15T00:15:06.472Z,100145.59
2022-11-15T00:20:26.540Z,100153.22
2022-11-15T00:25:47.260Z,100156.63
2022-11-15T00:31:12.201Z,100152.69
2022-11-15T00:36:35.523Z,100155.19
2022-11-15T00:41:55.564Z,100152.81
2022-11-15T00:47:15.559Z,100154.41
2022-11-15T00:52:35.991Z,100145.09
2022-11-15T00:57:55.765Z,100138.38
2022-11-15T01:03:16.019Z,100118.31
2022-11-15T01:08:36.946Z,100116.50
2022-11-15T01:13:57.518Z,100110.81
2022-11-15T01:19:17.572Z,100092.56
2022-11-15T01:24:38.041Z,100098.47
2022-11-15T01:29:59.085Z,100085.84
2022-11-15T01:35:19.286Z,100087.53
2022-11-15T01:40:39.481Z,100088.22
2022-11-15T01:46:16.566Z,100096.66
2022-11-15T01:51:36.813Z,100094.16
2022-11-15T01:57:02.773Z,100086.66
2022-11-15T02:02:23.061Z,100085.97
2022-11-15T02:07:43.614Z,100093.47
2022-11-15T02:13:04.139Z,100097.63
2022-11-15T02:18:33.221Z,100093.47
2022-11-15T02:24:12.009Z,100097.72
2022-11-15T02:30:02.977Z,100083.41
2022-11-15T02:35:49.433Z,100085.16
2022-11-15T02:41:21.094Z,100083.31
2022-11-15T02:47:12.483Z,100083.19
2022-11-15T02:52:32.643Z,100081.56
2022-11-15T02:58:00.846Z,100082.38
2022-11-15T03:03:23.839Z,100088.19
2022-11-15T03:08:50.917Z,100073.91
2022-11-15T03:14:24.372Z,100077.31
2022-11-15T03:19:44.565Z,100074.16
2022-11-15T03:25:09.487Z,100070.91
2022-11-15T03:30:33.041Z,100071.66
2022-11-15T03:35:55.045Z,100075.91
2022-11-15T03:41:39.157Z,100068.44
2022-11-15T03:47:07.529Z,100063.44
2022-11-15T03:52:33.175Z,100053.44
2022-11-15T03:57:57.938Z,100041.63
2022-11-15T04:03:17.979Z,100033.94
2022-11-15T04:08:38.157Z,100037.06
2022-11-15T04:13:58.452Z,100024.41
2022-11-15T04:19:37.059Z,100022.59
2022-11-15T04:24:56.851Z,100023.94
2022-11-15T04:30:16.988Z,100014.91
2022-11-15T04:35:37.053Z,100011.41
2022-11-15T04:40:57.622Z,99999.50
2022-11-15T04:46:17.913Z,99999.50
2022-11-15T04:51:38.367Z,100004.41
2022-11-15T04:56:58.803Z,100001.13
2022-11-15T05:02:19.137Z,99996.84
2022-11-15T05:07:39.387Z,99996.19
2022-11-15T05:12:59.788Z,99987.84
2022-11-15T05:18:23.731Z,99995.38
2022-11-15T05:23:44.364Z,99980.84
2022-11-15T05:29:04.504Z,99987.53
2022-11-15T05:34:26.597Z,99971.69
2022-11-15T05:39:47.014Z,99966.53
2022-11-15T05:45:09.438Z,99975.94
2022-11-15T05:50:30.336Z,99972.59
2022-11-15T05:55:51.521Z,99973.41
2022-11-15T06:01:12.117Z,99978.47
2022-11-15T06:06:32.032Z,99981.97
2022-11-15T06:11:52.328Z,99982.78
2022-11-15T06:17:12.890Z,99979.47
2022-11-15T06:22:33.196Z,99982.84
2022-11-15T06:27:54.717Z,99973.59
2022-11-15T06:33:14.996Z,99982.84
2022-11-15T06:38:35.706Z,99989.47
2022-11-15T06:43:56.016Z,99982.84
2022-11-15T06:49:16.556Z,99978.59
2022-11-15T06:54:36.716Z,99980.34
2022-11-15T06:59:57.073Z,99981.25
2022-11-15T07:05:17.481Z,99987.19
2022-11-15T07:10:37.893Z,99997.09
2022-11-15T07:15:58.497Z,99990.47
2022-11-15T07:21:21.311Z,99989.72
2022-11-15T07:26:45.060Z,99991.19
2022-11-15T07:32:05.910Z,99976.22
2022-11-15T07:37:26.027Z,99977.19
2022-11-15T07:42:55.222Z,99973.16
2022-11-15T07:48:15.167Z,99976.72
2022-11-15T07:53:35.599Z,99969.31
2022-11-15T07:58:56.139Z,99956.84
2022-11-15T08:04:16.466Z,99972.13
2022-11-15T08:09:36.381Z,99964.75
2022-11-15T08:14:57.374Z,99972.41
2022-11-15T08:20:17.470Z,99958.25
2022-11-15T08:25:37.608Z,99946.94
2022-11-15T08:30:58.433Z,99953.97
2022-11-15T08:36:18.901Z,99957.81
2022-11-15T08:41:39.698Z,99962.09
2022-11-15T08:47:00.481Z,99954.63
2022-11-15T08:52:20.829Z,99955.63
2022-11-15T08:57:41.019Z,99954.00
2022-11-15T09:03:00.922Z,99960.78
2022-11-15T09:08:57.310Z,99957.41
2022-11-15T09:14:01.578Z,99938.94
2022-11-15T09:19:22.234Z,99936.56
2022-11-15T09:24:42.569Z,99931.72
2022-11-15T09:30:02.825Z,99920.31
2022-11-15T09:35:22.897Z,99909.56
2022-11-15T09:40:43.306Z,99907.75
2022-11-15T09:46:32.534Z,99899.41
2022-11-15T09:51:55.156Z,99888.09
2022-11-15T09:57:04.642Z,99877.44
2022-11-15T10:02:15.299Z,99862.47
2022-11-15T10:07:21.794Z,99849.28
2022-11-15T10:12:24.128Z,99838.56
2022-11-15T10:17:35.100Z,99846.25
2022-11-15T10:22:40.540Z,99850.66
2022-11-15T10:27:44.166Z,99850.84
2022-11-15T10:32:47.923Z,99837.47
2022-11-15T10:37:49.853Z,99822.50
2022-11-15T10:43:09.981Z,99818.34
2022-11-15T10:48:14.584Z,99823.44
2022-11-15T10:53:25.103Z,99803.38
2022-11-15T10:59:05.589Z,99785.84
2022-11-15T11:04:08.729Z,99782.63
2022-11-15T11:09:24.409Z,99778.44
2022-11-15T11:14:28.773Z,99765.22
2022-11-15T11:19:54.632Z,99761.78
2022-11-15T11:25:06.097Z,99751.81
2022-11-15T11:30:15.578Z,99758.56
2022-11-15T11:35:33.629Z,99745.16
2022-11-15T11:40:44.328Z,99733.53
2022-11-15T11:46:01.449Z,99725.97
2022-11-15T11:51:50.425Z,99715.22
2022-11-15T11:56:54.859Z,99714.34
2022-11-15T12:01:57.950Z,99706.09
2022-11-15T12:07:09.368Z,99697.78
2022-11-15T12:12:30.471Z,99677.72
2022-11-15T12:17:33.227Z,99672.75
2022-11-15T12:22:46.277Z,99665.31
2022-11-15T12:27:56.648Z,99653.69
2022-11-15T12:33:00.585Z,99648.66
2022-11-15T12:38:02.305Z,99634.50
2022-11-15T12:43:16.286Z,99637.88
2022-11-15T12:48:18.068Z,99631.25
2022-11-15T12:53:25.702Z,99625.38
2022-11-15T12:58:39.958Z,99631.19
2022-11-15T13:04:13.825Z,99613.63
2022-11-15T13:09:33.490Z,99609.41
2022-11-15T13:14:42.448Z,99597.63
2022-11-15T13:19:44.641Z,99602.72
2022-11-15T13:24:46.280Z,99591.00
2022-11-15T13:29:48.404Z,99580.94
2022-11-15T13:34:53.767Z,99578.47
2022-11-15T13:39:55.481Z,99570.13
2022-11-15T13:45:02.507Z,99569.28
2022-11-15T13:50:09.633Z,99567.56
2022-11-15T13:55:18.625Z,99549.13
2022-11-15T14:00:41.143Z,99546.63
2022-11-15T14:05:43.183Z,99537.44
2022-11-15T14:10:44.799Z,99542.50
2022-11-15T14:15:46.422Z,99527.44
2022-11-15T14:20:48.105Z,99525.78
2022-11-15T14:25:58.104Z,99534.13
2022-11-15T14:31:01.169Z,99517.34
2022-11-15T14:36:12.482Z,99513.09
2022-11-15T14:41:23.470Z,99513.94
2022-11-15T14:46:25.079Z,99503.03
2022-11-15T14:51:27.223Z,99512.31
2022-11-15T14:56:28.937Z,99507.31
2022-11-15T15:01:30.562Z,99507.25
2022-11-15T15:06:32.231Z,99495.56
2022-11-15T15:11:34.282Z,99485.44
2022-11-15T15:16:36.136Z,99482.16
2022-11-15T15:21:38.998Z,99485.53
2022-11-15T15:26:41.380Z,99488.88
2022-11-15T15:31:43.062Z,99488.06
2022-11-15T15:36:44.668Z,99482.25
2022-11-15T15:41:46.451Z,99486.47
2022-11-15T15:46:48.027Z,99478.91
2022-11-15T15:51:49.641Z,99483.09
2022-11-15T15:56:56.070Z,99475.59
2022-11-15T16:01:58.367Z,99476.47
2022-11-15T16:07:03.999Z,99464.72
2022-11-15T16:12:06.598Z,99461.41
2022-11-15T16:17:15.640Z,99468.94
2022-11-15T16:22:17.182Z,99467.28
2022-11-15T16:27:21.651Z,99460.56
2022-11-15T16:32:23.928Z,99453.88
2022-11-15T16:37:25.606Z,99456.38
2022-11-15T16:42:27.174Z,99447.19
2022-11-15T16:47:28.774Z,99440.47
2022-11-15T16:52:30.712Z,99445.47
2022-11-15T16:57:32.517Z,99433.78
2022-11-15T17:02:34.478Z,99432.13
2022-11-15T17:07:36.414Z,99438.78
2022-11-15T17:12:38.513Z,99432.06
2022-11-15T17:17:41.509Z,99427.94
2022-11-15T17:22:43.239Z,99429.59
2022-11-15T17:27:44.953Z,99443.81
2022-11-15T17:32:49.841Z,99421.22
2022-11-15T17:37:52.759Z,99418.72
2022-11-15T17:42:55.457Z,99421.22
2022-11-15T17:47:57.090Z,99418.75
2022-11-15T17:53:00.091Z,99397.81
2022-11-15T17:58:01.687Z,99393.59
2022-11-15T18:03:03.571Z,99400.31
2022-11-15T18:08:05.428Z,99391.09
2022-11-15T18:13:07.161Z,99380.19
2022-11-15T18:18:09.022Z,99378.50
2022-11-15T18:23:10.859Z,99375.97
2022-11-15T18:28:12.456Z,99376.84
2022-11-15T18:33:14.122Z,99372.66
2022-11-15T18:38:15.728Z,99366.81
2022-11-15T18:43:17.474Z,99367.63
2022-11-15T18:48:19.080Z,99348.41
2022-11-15T18:53:20.867Z,99348.41
2022-11-15T18:58:22.654Z,99345.03
2022-11-15T19:03:24.784Z,99343.34
2022-11-15T19:08:26.865Z,99335.84
2022-11-15T19:13:29.598Z,99324.94
2022-11-15T19:18:33.245Z,99319.13
2022-11-15T19:23:39.325Z,99321.63
2022-11-15T19:28:41.741Z,99330.00
2022-11-15T19:33:45.017Z,99329.97
2022-11-15T19:38:55.123Z,99327.50
2022-11-15T19:43:57.377Z,99327.50
2022-11-15T19:48:59.257Z,99329.19
2022-11-15T19:54:06.332Z,99312.44
2022-11-15T19:59:11.885Z,99325.81
2022-11-15T20:04:13.642Z,99325.81
2022-11-15T20:09:16.633Z,99325.81
2022-11-15T20:14:20.394Z,99314.94
2022-11-15T20:19:22.620Z,99304.00
2022-11-15T20:24:24.368Z,99296.44
2022-11-15T20:29:48.415Z,99309.03
2022-11-15T20:34:53.998Z,99306.56
2022-11-15T20:39:55.881Z,99294.84
2022-11-15T20:44:57.497Z,99287.28
2022-11-15T20:50:14.989Z,99264.59
2022-11-15T20:55:21.629Z,99272.94
2022-11-15T21:00:25.802Z,99256.97
2022-11-15T21:05:28.670Z,99252.75
2022-11-15T21:10:50.344Z,99249.41
2022-11-15T21:15:55.797Z,99249.44
2022-11-15T21:21:05.097Z,99253.59
2022-11-15T21:26:06.731Z,99249.38
2022-11-15T21:31:09.034Z,99256.13
2022-11-15T21:36:10.843Z,99252.78
2022-11-15T21:41:12.979Z,99250.25
2022-11-15T21:46:15.062Z,99256.97
2022-11-15T21:51:17.400Z,99257.03
2022-11-15T21:56:19.038Z,99257.88
2022-11-15T22:01:40.206Z,99246.97
2022-11-15T22:06:42.085Z,99239.47
2022-11-15T22:11:43.930Z,99231.06
2022-11-15T22:16:45.693Z,99226.03
2022-11-15T22:21:47.511Z,99220.19
2022-11-15T22:26:49.207Z,99211.00
2022-11-15T22:31:50.885Z,99211.00
2022-11-15T22:37:19.128Z,99197.59
2022-11-15T22:42:17.179Z,99200.94
2022-11-15T22:47:21.669Z,99195.09
2022-11-15T22:52:23.379Z,99189.22
2022-11-15T22:57:25.138Z,99185.06
2022-11-15T23:02:27.293Z,99180.84
2022-11-15T23:07:29.258Z,99180.81
2022-11-15T23:12:57.290Z,99174.97
2022-11-15T23:17:58.972Z,99176.66
2022-11-15T23:23:00.825Z,99178.34
2022-11-15T23:28:03.516Z,99164.09
2022-11-15T23:33:23.899Z,99157.41
2022-11-15T23:38:25.691Z,99155.72
2022-11-15T23:43:27.864Z,99151.50
2022-11-15T23:48:29.948Z,99149.81
2022-11-15T23:53:31.791Z,99143.94
2022-11-15T23:58:34.334Z,99134.75
